Time;durP1;ratioP1;P1;durP2;ratioP2;P2;SDS_P1;SDS_P2;PMS_P1;PMS_P2;Temp;Humidity;BMP_temperature;BMP_pressure;BME280_temperature;BME280_humidity;BME280_pressure;Samples;Min_cycle;Max_cycle;Signal;HPM_P1;HPM_P2
2022/05/14 00:01:34;;;;;;;4.45;2.80;;;;;;;;;;5002154;28;20047;-85
2022/05/14 00:04:02;;;;;;;3.03;2.70;;;;;;;;;;4985213;28;20061;-85
2022/05/14 00:06:30;;;;;;;2.72;2.53;;;;;;;;;;4983766;28;20070;-84
2022/05/14 00:09:01;;;;;;;3.20;2.90;;;;;;;;;;4984486;28;20096;-85
2022/05/14 00:14:15;;;;;;;3.10;2.80;;;;;;;;;;5002447;28;20057;-86
2022/05/14 00:16:43;;;;;;;7.05;2.72;;;;;;;;;;5003080;28;20049;-84
2022/05/14 00:19:10;;;;;;;6.93;3.55;;;;;;;;;;4987435;28;20133;-85
2022/05/14 00:21:38;;;;;;;6.38;2.60;;;;;;;;;;4979961;28;20404;-84
2022/05/14 00:24:06;;;;;;;4.07;2.55;;;;;;;;;;4979690;28;20077;-85
2022/05/14 00:26:38;;;;;;;6.45;2.83;;;;;;;;;;4980002;28;20054;-85
2022/05/14 00:29:06;;;;;;;4.57;2.72;;;;;;;;;;4997597;28;20050;-85
2022/05/14 00:31:33;;;;;;;8.63;3.13;;;;;;;;;;4980064;28;20484;-85
2022/05/14 00:34:00;;;;;;;6.32;2.90;;;;;;;;;;4997228;28;20058;-84
2022/05/14 00:36:27;;;;;;;8.32;3.00;;;;;;;;;;4980226;28;20133;-84
2022/05/14 00:38:54;;;;;;;4.50;2.90;;;;;;;;;;4980277;28;20104;-84
2022/05/14 00:41:23;;;;;;;4.45;3.28;;;;;;;;;;4997598;28;20393;-85
2022/05/14 00:44:00;;;;;;;7.13;3.45;;;;;;;;;;4980208;28;20141;-84
2022/05/14 00:46:33;;;;;;;3.47;3.10;;;;;;;;;;4981039;28;20479;-85
2022/05/14 00:49:00;;;;;;;4.05;3.05;;;;;;;;;;4980263;28;20081;-85
2022/05/14 00:51:34;;;;;;;2.92;2.72;;;;;;;;;;4980853;28;20078;-84
2022/05/14 00:54:05;;;;;;;3.30;3.00;;;;;;;;;;4979714;28;20058;-86
2022/05/14 00:56:35;;;;;;;3.88;3.20;;;;;;;;;;4979111;28;20567;-84
2022/05/14 00:59:08;;;;;;;4.90;3.15;;;;;;;;;;4978932;28;20069;-85
2022/05/14 01:01:37;;;;;;;4.60;3.07;;;;;;;;;;4979467;28;20356;-85
2022/05/14 01:04:06;;;;;;;5.22;3.13;;;;;;;;;;4979542;28;20076;-85
2022/05/14 01:06:36;;;;;;;4.25;2.95;;;;;;;;;;4979540;28;20070;-84
2022/05/14 01:09:05;;;;;;;5.68;2.80;;;;;;;;;;4979976;28;20125;-84
2022/05/14 01:11:34;;;;;;;7.13;3.15;;;;;;;;;;4980332;28;20476;-83
2022/05/14 01:14:01;;;;;;;7.22;2.97;;;;;;;;;;4979590;28;20097;-85
2022/05/14 01:16:28;;;;;;;4.28;3.00;;;;;;;;;;4979080;28;20054;-85
2022/05/14 01:18:55;;;;;;;4.07;3.15;;;;;;;;;;4979471;28;20412;-86
2022/05/14 01:21:22;;;;;;;3.90;3.17;;;;;;;;;;4997449;28;20499;-85
2022/05/14 01:29:25;;;;;;;5.25;3.42;;;;;;;;;;4996693;28;20066;-82
2022/05/14 01:31:53;;;;;;;8.10;3.65;;;;;;;;;;4996429;28;20488;-82
2022/05/14 01:34:22;;;;;;;9.23;3.50;;;;;;;;;;4995155;28;20082;-79
2022/05/14 01:36:49;;;;;;;4.53;3.88;;;;;;;;;;4996640;28;20137;-81
2022/05/14 01:39:16;;;;;;;4.55;3.50;;;;;;;;;;4997427;28;20074;-81
2022/05/14 01:41:43;;;;;;;8.70;4.10;;;;;;;;;;4997678;28;20050;-82
2022/05/14 01:44:11;;;;;;;7.70;4.00;;;;;;;;;;5045960;23;20565;-84
2022/05/14 01:46:38;;;;;;;4.97;4.25;;;;;;;;;;5027638;28;20076;-83
2022/05/14 01:49:05;;;;;;;5.97;4.38;;;;;;;;;;5027879;28;20046;-83
2022/05/14 01:51:33;;;;;;;5.25;3.85;;;;;;;;;;5027344;28;20076;-83
2022/05/14 01:54:02;;;;;;;8.80;3.45;;;;;;;;;;5027794;28;20050;-83
2022/05/14 01:56:30;;;;;;;7.97;3.97;;;;;;;;;;5028186;28;20042;-84
2022/05/14 01:58:57;;;;;;;8.13;4.28;;;;;;;;;;5028687;28;20546;-84
2022/05/14 02:01:24;;;;;;;6.43;3.90;;;;;;;;;;5031865;28;20093;-83
2022/05/14 02:03:53;;;;;;;4.68;4.28;;;;;;;;;;5034197;28;20077;-83
2022/05/14 02:06:22;;;;;;;4.82;4.00;;;;;;;;;;5015556;28;20503;-83
2022/05/14 02:08:49;;;;;;;5.60;3.53;;;;;;;;;;5016417;28;20096;-82
2022/05/14 02:11:18;;;;;;;6.75;4.13;;;;;;;;;;5015155;28;20435;-83
2022/05/14 02:13:45;;;;;;;5.45;3.38;;;;;;;;;;5017536;28;20058;-82
2022/05/14 02:16:14;;;;;;;5.88;3.83;;;;;;;;;;5016309;28;20084;-83
2022/05/14 02:18:42;;;;;;;4.13;3.25;;;;;;;;;;5015681;28;20069;-83
2022/05/14 02:21:09;;;;;;;4.00;3.63;;;;;;;;;;5015748;28;20487;-83
2022/05/14 02:23:38;;;;;;;4.55;4.00;;;;;;;;;;5015527;28;20166;-83
2022/05/14 02:26:09;;;;;;;5.70;4.03;;;;;;;;;;5016751;28;20062;-83
2022/05/14 02:28:37;;;;;;;3.80;3.50;;;;;;;;;;5015408;28;20096;-83
2022/05/14 02:31:04;;;;;;;4.53;3.88;;;;;;;;;;5015061;28;20499;-83
2022/05/14 02:33:40;;;;;;;4.70;4.00;;;;;;;;;;5015639;28;20050;-83
2022/05/14 02:36:08;;;;;;;6.60;4.05;;;;;;;;;;5015316;28;20108;-83
2022/05/14 02:38:38;;;;;;;6.65;3.50;;;;;;;;;;5015358;28;20515;-83
2022/05/14 02:41:06;;;;;;;4.80;3.78;;;;;;;;;;5015286;28;20081;-83
2022/05/14 02:43:33;;;;;;;5.10;4.13;;;;;;;;;;5014365;28;20065;-83
2022/05/14 02:46:04;;;;;;;4.57;4.13;;;;;;;;;;5014672;28;20474;-83
2022/05/14 02:48:32;;;;;;;4.22;3.70;;;;;;;;;;5015235;28;20058;-83
2022/05/14 02:50:59;;;;;;;7.93;4.55;;;;;;;;;;5014741;28;20056;-83
2022/05/14 02:53:29;;;;;;;5.75;4.00;;;;;;;;;;5015384;28;20092;-83
2022/05/14 02:55:56;;;;;;;4.70;4.28;;;;;;;;;;5014862;28;20141;-83
2022/05/14 03:01:28;;;;;;;7.60;4.25;;;;;;;;;;4994498;28;20037;-83
2022/05/14 03:04:04;;;;;;;5.05;4.22;;;;;;;;;;5013937;28;20490;-83
2022/05/14 03:06:31;;;;;;;6.72;4.20;;;;;;;;;;5014090;28;20132;-83
2022/05/14 03:09:04;;;;;;;3.90;3.60;;;;;;;;;;5014152;28;20088;-82
2022/05/14 03:11:32;;;;;;;5.20;3.90;;;;;;;;;;5014840;28;20073;-82
2022/05/14 03:13:59;;;;;;;5.57;4.00;;;;;;;;;;5015561;28;20471;-83
2022/05/14 03:16:29;;;;;;;8.75;4.28;;;;;;;;;;5013853;28;20136;-82
2022/05/14 03:18:56;;;;;;;7.07;4.30;;;;;;;;;;5013803;28;20057;-82
2022/05/14 03:21:27;;;;;;;7.45;4.18;;;;;;;;;;5015110;28;20078;-82
2022/05/14 03:23:54;;;;;;;8.75;4.65;;;;;;;;;;5018255;28;20054;-82
2022/05/14 03:26:27;;;;;;;6.10;4.50;;;;;;;;;;5017821;28;20446;-82
2022/05/14 03:28:54;;;;;;;8.55;5.13;;;;;;;;;;5018162;28;20451;-82
2022/05/14 03:31:21;;;;;;;7.40;4.50;;;;;;;;;;5018025;28;20132;-83
2022/05/14 03:33:49;;;;;;;9.77;4.93;;;;;;;;;;5018322;28;20073;-83
2022/05/14 03:36:16;;;;;;;6.90;3.88;;;;;;;;;;5017219;28;20060;-83
2022/05/14 03:38:43;;;;;;;7.93;4.20;;;;;;;;;;5016708;28;20085;-83
2022/05/14 03:41:10;;;;;;;6.00;4.35;;;;;;;;;;5016499;28;20096;-83
2022/05/14 03:43:38;;;;;;;4.60;4.25;;;;;;;;;;5015909;28;20045;-83
2022/05/14 03:46:18;;;;;;;5.63;4.30;;;;;;;;;;5016237;28;20046;-83
2022/05/14 03:48:46;;;;;;;5.57;4.25;;;;;;;;;;5016289;28;20164;-83
2022/05/14 03:51:19;;;;;;;6.63;4.78;;;;;;;;;;5016554;28;20069;-83
2022/05/14 03:53:47;;;;;;;;;;;;;;;;;;5022863;28;20070;-83
2022/05/14 03:56:15;;;;;;;5.55;4.07;;;;;;;;;;5025927;28;19921;-83
2022/05/14 03:58:42;;;;;;;6.10;4.53;;;;;;;;;;5026050;28;20050;-83
2022/05/14 04:01:10;;;;;;;5.60;4.60;;;;;;;;;;5026892;28;20054;-83
2022/05/14 04:03:37;;;;;;;10.40;5.22;;;;;;;;;;5028252;28;20061;-83
2022/05/14 04:06:05;;;;;;;6.72;4.47;;;;;;;;;;5027119;28;20533;-83
2022/05/14 04:08:36;;;;;;;9.65;5.15;;;;;;;;;;5027560;28;20430;-83
2022/05/14 04:11:03;;;;;;;7.25;4.60;;;;;;;;;;5028255;28;20070;-83
2022/05/14 04:13:31;;;;;;;9.50;4.82;;;;;;;;;;5029068;28;20070;-83
2022/05/14 04:15:58;;;;;;;7.35;4.45;;;;;;;;;;5029392;28;20069;-84
2022/05/14 04:18:25;;;;;;;6.07;4.57;;;;;;;;;;5031277;28;20135;-82
2022/05/14 04:20:54;;;;;;;11.77;5.70;;;;;;;;;;5037325;28;20037;-83
2022/05/14 04:23:25;;;;;;;8.00;4.55;;;;;;;;;;5019212;28;20050;-82
2022/05/14 04:25:53;;;;;;;7.18;4.65;;;;;;;;;;5017910;28;20053;-82
2022/05/14 04:28:20;;;;;;;10.52;4.72;;;;;;;;;;5018185;28;20077;-83
2022/05/14 04:30:48;;;;;;;9.05;5.50;;;;;;;;;;5017523;28;20073;-83
2022/05/14 04:33:18;;;;;;;8.32;5.05;;;;;;;;;;5017830;28;20525;-83
2022/05/14 04:35:45;;;;;;;6.45;4.20;;;;;;;;;;5017337;28;20128;-84
2022/05/14 04:38:15;;;;;;;3.97;3.58;;;;;;;;;;5017007;28;20081;-83
2022/05/14 04:40:44;;;;;;;5.28;3.65;;;;;;;;;;5016690;28;20049;-83
2022/05/14 04:43:12;;;;;;;5.75;4.00;;;;;;;;;;5018992;28;20053;-83
2022/05/14 04:45:39;;;;;;;4.95;2.90;;;;;;;;;;5017345;28;20050;-83
2022/05/14 04:48:07;;;;;;;3.30;2.90;;;;;;;;;;5017490;28;20046;-83
2022/05/14 04:50:35;;;;;;;6.20;2.80;;;;;;;;;;5018581;28;20103;-83
2022/05/14 04:53:06;;;;;;;5.78;2.78;;;;;;;;;;5017070;28;20062;-83
2022/05/14 04:55:33;;;;;;;6.68;3.05;;;;;;;;;;5015583;28;20499;-83
2022/05/14 04:58:03;;;;;;;4.72;2.70;;;;;;;;;;5016155;28;20099;-83
2022/05/14 05:00:31;;;;;;;4.68;2.70;;;;;;;;;;5016224;28;20470;-83
2022/05/14 05:03:19;;;;;;;5.07;2.45;;;;;;;;;;5015954;28;20057;-83
2022/05/14 05:05:52;;;;;;;3.47;2.22;;;;;;;;;;5015487;28;20046;-82
2022/05/14 05:08:20;;;;;;;4.45;2.75;;;;;;;;;;5015563;28;20137;-82
2022/05/14 05:10:47;;;;;;;4.30;1.95;;;;;;;;;;5015382;28;20050;-83
2022/05/14 05:13:16;;;;;;;4.13;1.92;;;;;;;;;;5016658;28;20054;-82
2022/05/14 05:15:54;;;;;;;3.05;1.77;;;;;;;;;;5015482;28;20096;-83
2022/05/14 05:18:22;;;;;;;1.48;1.30;;;;;;;;;;5015260;28;20089;-83
2022/05/14 05:20:51;;;;;;;2.35;1.70;;;;;;;;;;5014435;28;20141;-83
2022/05/14 05:23:20;;;;;;;2.00;1.30;;;;;;;;;;5014509;28;20108;-84
2022/05/14 05:25:51;;;;;;;3.78;1.77;;;;;;;;;;5014396;28;20479;-83
2022/05/14 05:28:18;;;;;;;3.05;1.17;;;;;;;;;;5014486;28;20056;-83
2022/05/14 05:30:46;;;;;;;4.05;1.20;;;;;;;;;;5015538;28;20088;-83
2022/05/14 05:33:17;;;;;;;4.85;1.33;;;;;;;;;;5015667;28;20049;-83
2022/05/14 05:35:45;;;;;;;12.68;1.98;;;;;;;;;;5014699;28;20499;-84
2022/05/14 05:38:16;;;;;;;3.90;1.45;;;;;;;;;;5018089;28;20514;-84
2022/05/14 05:40:44;;;;;;;4.38;1.75;;;;;;;;;;5016948;28;20448;-85
2022/05/14 05:43:11;;;;;;;4.47;1.80;;;;;;;;;;5014969;28;20077;-84
2022/05/14 05:45:40;;;;;;;21.00;2.13;;;;;;;;;;5016451;28;20046;-85
2022/05/14 05:48:10;;;;;;;6.72;2.03;;;;;;;;;;5017205;28;20134;-85
2022/05/14 05:50:38;;;;;;;5.40;1.77;;;;;;;;;;5016969;28;20498;-84
2022/05/14 05:53:13;;;;;;;9.02;1.77;;;;;;;;;;5017495;28;20048;-84
2022/05/14 05:58:27;;;;;;;9.00;1.55;;;;;;;;;;5019202;28;20049;-85
2022/05/14 06:01:12;;;;;;;7.82;1.25;;;;;;;;;;5016422;28;20148;-85
2022/05/14 06:03:40;;;;;;;3.95;1.55;;;;;;;;;;5018889;28;20430;-84
2022/05/14 06:06:12;;;;;;;4.85;1.30;;;;;;;;;;5018436;28;20046;-85
2022/05/14 06:08:39;;;;;;;4.95;1.33;;;;;;;;;;5020167;28;20160;-84
2022/05/14 06:11:08;;;;;;;5.57;1.58;;;;;;;;;;5017424;28;20056;-85
2022/05/14 06:13:35;;;;;;;8.25;2.42;;;;;;;;;;5020026;28;20110;-84
2022/05/14 06:16:03;;;;;;;18.75;3.13;;;;;;;;;;5017851;28;20117;-85
2022/05/14 06:18:30;;;;;;;14.63;2.40;;;;;;;;;;5018922;28;20457;-85
2022/05/14 06:20:59;;;;;;;21.13;3.03;;;;;;;;;;5018465;28;20053;-85
2022/05/14 06:23:27;;;;;;;14.93;2.60;;;;;;;;;;5017924;28;20054;-85
2022/05/14 06:26:08;;;;;;;17.35;2.58;;;;;;;;;;5018999;28;20050;-85
2022/05/14 06:28:35;;;;;;;5.13;1.50;;;;;;;;;;5016597;28;20053;-85
2022/05/14 06:31:05;;;;;;;14.13;1.92;;;;;;;;;;5020439;28;20085;-85
2022/05/14 06:33:32;;;;;;;14.77;2.22;;;;;;;;;;5021107;28;20137;-85
2022/05/14 06:36:00;;;;;;;3.70;1.20;;;;;;;;;;5016200;28;20085;-85
2022/05/14 06:38:27;;;;;;;3.90;1.30;;;;;;;;;;5013677;28;20077;-84
2022/05/14 06:40:56;;;;;;;2.17;1.15;;;;;;;;;;4997878;28;20084;-84
2022/05/14 06:43:24;;;;;;;12.75;1.70;;;;;;;;;;5002481;28;20141;-85
2022/05/14 06:45:51;;;;;;;9.27;1.67;;;;;;;;;;4993581;28;20042;-84
2022/05/14 06:48:24;;;;;;;9.80;2.13;;;;;;;;;;4994492;28;20496;-84
2022/05/14 06:50:51;;;;;;;12.63;2.83;;;;;;;;;;5001061;28;20535;-85
2022/05/14 06:53:24;;;;;;;9.65;2.85;;;;;;;;;;5005943;28;20097;-86
2022/05/14 06:55:52;;;;;;;19.90;2.92;;;;;;;;;;5012041;28;20124;-85
2022/05/14 06:58:24;;;;;;;8.02;2.50;;;;;;;;;;5014447;28;20117;-85
2022/05/14 07:00:51;;;;;;;11.50;2.30;;;;;;;;;;5013977;28;20050;-85
2022/05/14 07:09:16;;;;;;;10.00;2.40;;;;;;;;;;5016170;28;19972;-85
2022/05/14 07:11:56;;;;;;;12.65;2.70;;;;;;;;;;5013970;28;20046;-85
2022/05/14 07:14:25;;;;;;;7.68;2.47;;;;;;;;;;5014216;28;20057;-85
2022/05/14 07:16:53;;;;;;;11.23;2.35;;;;;;;;;;5016574;28;20053;-86
2022/05/14 07:19:20;;;;;;;14.07;2.15;;;;;;;;;;5016753;28;20088;-86
2022/05/14 07:21:48;;;;;;;9.60;1.98;;;;;;;;;;5012997;28;20581;-86
2022/05/14 07:24:17;;;;;;;15.07;2.63;;;;;;;;;;5015387;28;20097;-86
2022/05/14 07:26:45;;;;;;;8.75;2.20;;;;;;;;;;5015867;28;20077;-85
2022/05/14 07:29:25;;;;;;;9.35;2.10;;;;;;;;;;5015964;28;20045;-85
2022/05/14 07:31:52;;;;;;;7.40;2.05;;;;;;;;;;5014771;28;20069;-87
2022/05/14 07:34:20;;;;;;;7.40;2.10;;;;;;;;;;5016240;28;20061;-86
2022/05/14 07:36:52;;;;;;;6.90;1.85;;;;;;;;;;5005870;28;20137;-85
2022/05/14 07:39:23;;;;;;;7.97;1.70;;;;;;;;;;4996938;28;20050;-85
2022/05/14 07:41:53;;;;;;;6.43;1.77;;;;;;;;;;5013345;28;20046;-85
2022/05/14 07:44:23;;;;;;;12.27;1.98;;;;;;;;;;5006346;28;20050;-86
2022/05/14 07:46:59;;;;;;;6.95;2.00;;;;;;;;;;5013097;28;20077;-86
2022/05/14 07:49:26;;;;;;;5.28;1.80;;;;;;;;;;5019517;28;20046;-88
2022/05/14 07:51:55;;;;;;;7.88;1.63;;;;;;;;;;5017007;28;20427;-86
2022/05/14 07:54:24;;;;;;;6.43;1.60;;;;;;;;;;5018095;28;20081;-86
2022/05/14 07:56:51;;;;;;;6.07;1.60;;;;;;;;;;5018038;28;20119;-88
2022/05/14 07:59:31;;;;;;;8.35;1.90;;;;;;;;;;5017875;28;20054;-87
2022/05/14 08:01:58;;;;;;;5.18;2.08;;;;;;;;;;5017928;28;20545;-87
2022/05/14 08:04:28;;;;;;;7.25;1.85;;;;;;;;;;5016345;28;20049;-86
2022/05/14 08:06:55;;;;;;;5.90;1.70;;;;;;;;;;5016225;28;20108;-87
2022/05/14 08:09:23;;;;;;;5.43;1.58;;;;;;;;;;5019612;28;20050;-88
2022/05/14 08:11:59;;;;;;;5.75;1.55;;;;;;;;;;5019387;28;20057;-86
2022/05/14 08:14:28;;;;;;;7.70;2.38;;;;;;;;;;5021051;28;20070;-85
2022/05/14 08:16:55;;;;;;;3.80;1.70;;;;;;;;;;5021794;28;20499;-86
2022/05/14 08:19:36;;;;;;;5.43;1.80;;;;;;;;;;5022651;28;20054;-86
2022/05/14 08:24:52;;;;;;;5.55;2.05;;;;;;;;;;5019444;28;20136;-87
2022/05/14 08:27:22;;;;;;;7.15;1.85;;;;;;;;;;5018274;28;20456;-87
2022/05/14 08:29:50;;;;;;;10.57;2.20;;;;;;;;;;5020104;28;20077;-87
2022/05/14 08:35:41;;;;;;;4.22;1.33;;;;;;;;;;5017597;28;20494;-87
2022/05/14 08:38:38;;;;;;;4.22;1.23;;;;;;;;;;5018578;28;20066;-88
2022/05/14 08:41:05;;;;;;;7.25;1.67;;;;;;;;;;5020342;28;20419;-87
2022/05/14 08:43:43;;;;;;;5.95;1.63;;;;;;;;;;5013814;28;20396;-88
2022/05/14 08:46:12;;;;;;;10.00;2.05;;;;;;;;;;5018771;28;20050;-86
2022/05/14 08:48:39;;;;;;;6.40;1.52;;;;;;;;;;5019078;28;20153;-88
2022/05/14 08:51:09;;;;;;;5.50;1.52;;;;;;;;;;5019353;28;20068;-87
2022/05/14 08:53:40;;;;;;;9.75;1.83;;;;;;;;;;5035571;28;20057;-87
2022/05/14 08:56:10;;;;;;;4.75;1.60;;;;;;;;;;5032605;28;20509;-87
2022/05/14 08:58:53;;;;;;;6.07;1.52;;;;;;;;;;5015681;28;20084;-87
2022/05/14 09:01:23;;;;;;;5.30;1.23;;;;;;;;;;5014737;28;20566;-87
2022/05/14 09:03:53;;;;;;;6.22;1.65;;;;;;;;;;5015527;28;20380;-87
2022/05/14 09:06:21;;;;;;;5.97;1.67;;;;;;;;;;5019466;28;20030;-86
2022/05/14 09:08:53;;;;;;;5.45;1.83;;;;;;;;;;5021006;28;20444;-86
2022/05/14 09:11:27;;;;;;;7.18;2.05;;;;;;;;;;5026283;28;20049;-86
2022/05/14 09:13:58;;;;;;;10.45;1.92;;;;;;;;;;5025433;28;20046;-85
2022/05/14 09:16:34;;;;;;;7.70;1.63;;;;;;;;;;5030256;28;20058;-86
2022/05/14 09:19:12;;;;;;;6.95;1.55;;;;;;;;;;5033001;28;20053;-86
2022/05/14 09:21:48;;;;;;;7.97;1.50;;;;;;;;;;5025773;28;20054;-86
2022/05/14 09:24:17;;;;;;;3.85;1.30;;;;;;;;;;5021612;28;20061;-86
2022/05/14 09:26:44;;;;;;;4.55;1.15;;;;;;;;;;5016901;28;20096;-86
2022/05/14 09:29:40;;;;;;;2.78;1.20;;;;;;;;;;5017397;28;20970;-85
2022/05/14 09:32:17;;;;;;;4.43;1.05;;;;;;;;;;5015176;28;20129;-87
2022/05/14 09:34:44;;;;;;;5.88;1.35;;;;;;;;;;5016082;28;20073;-86
2022/05/14 09:37:31;;;;;;;7.00;1.38;;;;;;;;;;5010496;28;20065;-86
2022/05/14 09:40:09;;;;;;;15.52;3.70;;;;;;;;;;5016611;28;20058;-86
2022/05/14 09:42:56;;;;;;;4.53;1.15;;;;;;;;;;5026242;28;20053;-85
2022/05/14 09:45:35;;;;;;;5.22;0.88;;;;;;;;;;5029101;28;20054;-86
2022/05/14 09:48:15;;;;;;;2.92;1.00;;;;;;;;;;5019847;28;20053;-86
2022/05/14 09:50:44;;;;;;;2.17;1.10;;;;;;;;;;5023174;28;20052;-86
2022/05/14 09:53:11;;;;;;;2.63;0.98;;;;;;;;;;5023251;28;20414;-85
2022/05/14 09:55:44;;;;;;;4.97;0.77;;;;;;;;;;5025395;28;20081;-85
2022/05/14 09:58:40;;;;;;;1.90;0.60;;;;;;;;;;5022611;28;20157;-84
2022/05/14 10:01:13;;;;;;;3.90;0.90;;;;;;;;;;5026989;28;20060;-85
2022/05/14 10:03:52;;;;;;;1.58;0.70;;;;;;;;;;5027136;28;20057;-84
2022/05/14 10:06:25;;;;;;;6.30;1.00;;;;;;;;;;5017919;28;20054;-86
2022/05/14 10:09:01;;;;;;;4.07;0.82;;;;;;;;;;5011007;28;20049;-84
2022/05/14 10:11:40;;;;;;;4.47;1.10;;;;;;;;;;5006464;28;20074;-85
2022/05/14 10:14:27;;;;;;;3.75;0.73;;;;;;;;;;5004547;28;20046;-86
2022/05/14 10:16:59;;;;;;;0.70;0.50;;;;;;;;;;5004578;28;20081;-85
2022/05/14 10:19:29;;;;;;;2.58;0.90;;;;;;;;;;5003791;28;20038;-85
2022/05/14 10:21:57;;;;;;;2.10;0.77;;;;;;;;;;5001320;28;20440;-85
2022/05/14 10:27:25;;;;;;;3.30;0.75;;;;;;;;;;5002773;28;20073;-86
2022/05/14 10:30:01;;;;;;;4.43;0.70;;;;;;;;;;4999706;28;20053;-85
2022/05/14 10:32:30;;;;;;;1.55;0.77;;;;;;;;;;4999384;28;20049;-84
2022/05/14 10:35:34;;;;;;;2.83;0.90;;;;;;;;;;5000955;28;20054;-84
2022/05/14 10:38:07;;;;;;;2.28;0.70;;;;;;;;;;4978135;28;20516;-85
2022/05/14 10:40:45;;;;;;;4.50;0.88;;;;;;;;;;4995977;28;20050;-84
2022/05/14 10:43:24;;;;;;;3.60;0.90;;;;;;;;;;4998519;28;20050;-85
2022/05/14 10:45:53;;;;;;;2.42;0.70;;;;;;;;;;4994929;28;20185;-85
2022/05/14 10:48:43;;;;;;;1.98;0.85;;;;;;;;;;5019343;28;20145;-83
2022/05/14 10:51:18;;;;;;;3.63;0.80;;;;;;;;;;5003578;28;20085;-85
2022/05/14 10:53:46;;;;;;;2.88;0.45;;;;;;;;;;5002726;28;20045;-86
2022/05/14 10:56:34;;;;;;;2.00;0.88;;;;;;;;;;5002637;28;20053;-83
2022/05/14 10:59:24;;;;;;;6.38;0.70;;;;;;;;;;5002717;28;20507;-85
2022/05/14 11:01:54;;;;;;;5.13;0.57;;;;;;;;;;5002471;28;20110;-85
2022/05/14 11:04:22;;;;;;;7.85;1.08;;;;;;;;;;5004521;28;20085;-85
2022/05/14 11:07:01;;;;;;;1.90;0.80;;;;;;;;;;5003298;28;20049;-84
2022/05/14 11:09:31;;;;;;;3.65;0.80;;;;;;;;;;5016132;28;20033;-84
2022/05/14 11:12:00;;;;;;;2.90;0.80;;;;;;;;;;5010266;28;20058;-85
2022/05/14 11:14:36;;;;;;;1.77;0.60;;;;;;;;;;4999902;28;20050;-84
2022/05/14 11:17:04;;;;;;;4.68;1.30;;;;;;;;;;4999032;28;20141;-87
2022/05/14 11:19:32;;;;;;;2.75;0.90;;;;;;;;;;5008196;28;20077;-86
2022/05/14 11:22:00;;;;;;;5.10;1.30;;;;;;;;;;5003968;28;20058;-87
2022/05/14 11:24:40;;;;;;;1.10;0.63;;;;;;;;;;5023022;28;20054;-84
2022/05/14 11:27:09;;;;;;;2.50;0.70;;;;;;;;;;5003661;28;20495;-85
2022/05/14 11:29:57;;;;;;;5.68;1.77;;;;;;;;;;5000851;28;20063;-86
2022/05/14 11:32:25;;;;;;;1.55;0.68;;;;;;;;;;5000786;28;20530;-85
2022/05/14 11:34:59;;;;;;;7.68;0.85;;;;;;;;;;5008141;28;20026;-87
2022/05/14 11:37:36;;;;;;;3.53;0.70;;;;;;;;;;5006593;28;20084;-82
2022/05/14 11:40:05;;;;;;;2.13;0.63;;;;;;;;;;5006848;28;20049;-85
2022/05/14 11:42:33;;;;;;;1.90;0.85;;;;;;;;;;5002986;28;20054;-86
2022/05/14 11:45:00;;;;;;;5.20;0.80;;;;;;;;;;5011803;28;20054;-85
2022/05/14 11:47:42;;;;;;;1.55;0.68;;;;;;;;;;5009803;28;20050;-86
2022/05/14 11:50:10;;;;;;;2.58;0.70;;;;;;;;;;5016814;28;20050;-86
2022/05/14 11:52:58;;;;;;;4.18;1.05;;;;;;;;;;5065999;28;20049;-88
2022/05/14 11:55:28;;;;;;;4.55;0.70;;;;;;;;;;5051253;28;20051;-85
2022/05/14 11:58:02;;;;;;;1.90;0.70;;;;;;;;;;5054587;28;20052;-85
2022/05/14 12:00:29;;;;;;;;;;;;;;;;;;5057265;28;20057;-85
2022/05/14 12:02:56;;;;;;;4.30;0.70;;;;;;;;;;5069047;28;19921;-86
2022/05/14 12:05:33;;;;;;;2.97;0.73;;;;;;;;;;5050089;28;20051;-85
2022/05/14 12:08:09;;;;;;;2.03;0.70;;;;;;;;;;5051878;28;20117;-85
2022/05/14 12:10:52;;;;;;;4.97;0.70;;;;;;;;;;5048472;28;20452;-85
2022/05/14 12:13:29;;;;;;;3.83;0.88;;;;;;;;;;5047864;28;20429;-84
2022/05/14 12:15:57;;;;;;;2.83;0.90;;;;;;;;;;5050953;28;20041;-86
2022/05/14 12:18:25;;;;;;;3.35;0.82;;;;;;;;;;5044794;28;20049;-86
2022/05/14 12:20:55;;;;;;;2.95;0.77;;;;;;;;;;5049843;28;20055;-84
2022/05/14 12:23:32;;;;;;;1.17;0.60;;;;;;;;;;5051246;28;20060;-85
2022/05/14 12:25:59;;;;;;;2.10;0.90;;;;;;;;;;5054765;28;20064;-86
2022/05/14 12:28:30;;;;;;;4.47;0.90;;;;;;;;;;5056535;28;20044;-86
2022/05/14 12:33:55;;;;;;;3.10;0.80;;;;;;;;;;5069253;28;20052;-84
2022/05/14 12:36:24;;;;;;;3.55;1.00;;;;;;;;;;5051096;28;20056;-85
2022/05/14 12:38:53;;;;;;;3.00;0.95;;;;;;;;;;5049896;28;20052;-87
2022/05/14 12:41:32;;;;;;;6.57;0.75;;;;;;;;;;5049554;28;20576;-85
2022/05/14 12:44:13;;;;;;;5.15;1.27;;;;;;;;;;5067188;28;20055;-83
2022/05/14 12:46:42;;;;;;;2.67;0.80;;;;;;;;;;5045110;28;20045;-85
2022/05/14 12:49:16;;;;;;;1.65;0.70;;;;;;;;;;5043922;28;20102;-88
2022/05/14 12:51:46;;;;;;;3.72;1.05;;;;;;;;;;5046031;28;20054;-87
2022/05/14 12:54:30;;;;;;;2.40;0.93;;;;;;;;;;5049674;28;20125;-83
2022/05/14 12:57:00;;;;;;;2.95;0.80;;;;;;;;;;5055140;28;20049;-85
2022/05/14 12:59:27;;;;;;;1.67;0.65;;;;;;;;;;5051402;28;20091;-86
2022/05/14 13:02:07;;;;;;;1.30;0.70;;;;;;;;;;5054905;28;20049;-86
2022/05/14 13:04:43;;;;;;;2.85;0.80;;;;;;;;;;5044520;28;20049;-86
2022/05/14 13:07:11;;;;;;;2.38;0.70;;;;;;;;;;5049203;28;20095;-85
2022/05/14 13:09:40;;;;;;;3.35;0.90;;;;;;;;;;5063385;28;20425;-86
2022/05/14 13:12:09;;;;;;;4.50;0.82;;;;;;;;;;5052278;28;20049;-86
2022/05/14 13:14:37;;;;;;;2.85;1.20;;;;;;;;;;5055018;28;20028;-86
2022/05/14 13:17:11;;;;;;;3.03;0.88;;;;;;;;;;5072741;28;20049;-85
2022/05/14 13:19:44;;;;;;;1.50;0.50;;;;;;;;;;5052085;28;20053;-86
2022/05/14 13:22:13;;;;;;;2.33;0.88;;;;;;;;;;5045838;28;20478;-88
2022/05/14 13:24:51;;;;;;;3.10;1.13;;;;;;;;;;5049183;28;20049;-87
2022/05/14 13:27:27;;;;;;;2.03;0.82;;;;;;;;;;5046550;28;20080;-86
2022/05/14 13:30:15;;;;;;;3.80;0.90;;;;;;;;;;5030361;28;20057;-86
2022/05/14 13:32:43;;;;;;;4.60;0.80;;;;;;;;;;5054404;28;20052;-84
2022/05/14 13:38:07;;;;;;;5.30;0.80;;;;;;;;;;5051287;28;20080;-86
2022/05/14 13:40:46;;;;;;;3.45;0.88;;;;;;;;;;5031166;28;20055;-85
2022/05/14 13:43:29;;;;;;;3.28;0.70;;;;;;;;;;5028280;28;20049;-84
2022/05/14 13:45:59;;;;;;;3.57;0.90;;;;;;;;;;5045068;28;20069;-84
2022/05/14 13:48:46;;;;;;;1.90;0.75;;;;;;;;;;5025072;28;20045;-85
2022/05/14 13:51:17;;;;;;;3.72;1.00;;;;;;;;;;5028991;28;20057;-85
2022/05/14 13:53:50;;;;;;;1.67;0.75;;;;;;;;;;5031021;28;20041;-85
2022/05/14 13:56:20;;;;;;;4.43;0.90;;;;;;;;;;5035239;28;20053;-86
2022/05/14 13:58:59;;;;;;;3.13;0.90;;;;;;;;;;5035342;28;20050;-86
2022/05/14 14:01:26;;;;;;;2.10;1.05;;;;;;;;;;5037335;28;20049;-86
2022/05/14 14:03:55;;;;;;;2.78;1.00;;;;;;;;;;5033002;28;20103;-86
2022/05/14 14:06:26;;;;;;;5.38;0.90;;;;;;;;;;5030566;28;20076;-84
2022/05/14 14:08:54;;;;;;;4.45;1.00;;;;;;;;;;5027065;28;20068;-87
2022/05/14 14:11:31;;;;;;;3.38;1.23;;;;;;;;;;5025971;28;20049;-85
2022/05/14 14:13:58;;;;;;;2.90;0.88;;;;;;;;;;5018780;28;20053;-85
2022/05/14 14:16:28;;;;;;;4.35;0.77;;;;;;;;;;5019709;28;20076;-85
2022/05/14 14:18:55;;;;;;;4.53;0.80;;;;;;;;;;5019655;28;20060;-85
2022/05/14 14:21:26;;;;;;;2.35;1.10;;;;;;;;;;5018948;28;20100;-85
2022/05/14 14:23:55;;;;;;;3.35;0.82;;;;;;;;;;5020068;28;20099;-86
2022/05/14 14:26:27;;;;;;;3.97;1.02;;;;;;;;;;5018960;28;20064;-84
2022/05/14 14:28:54;;;;;;;2.30;0.90;;;;;;;;;;5019998;28;20045;-85
2022/05/14 14:31:23;;;;;;;1.95;0.68;;;;;;;;;;5018917;28;20077;-85
2022/05/14 14:33:50;;;;;;;4.05;1.00;;;;;;;;;;5019924;28;20498;-84
2022/05/14 14:36:21;;;;;;;4.00;0.70;;;;;;;;;;5020246;28;20564;-85
2022/05/14 14:38:51;;;;;;;2.15;1.10;;;;;;;;;;5021253;28;20053;-85
2022/05/14 14:41:18;;;;;;;6.80;0.93;;;;;;;;;;5020924;28;20139;-86
2022/05/14 14:43:49;;;;;;;4.63;1.38;;;;;;;;;;5019289;28;20049;-86
2022/05/14 14:46:17;;;;;;;4.65;1.08;;;;;;;;;;5016702;28;20054;-86
2022/05/14 14:48:48;;;;;;;8.85;1.48;;;;;;;;;;4999722;28;20064;-85
2022/05/14 14:51:15;;;;;;;3.50;0.80;;;;;;;;;;5010846;28;20490;-84
2022/05/14 14:53:42;;;;;;;2.28;1.00;;;;;;;;;;5007863;28;20046;-88
2022/05/14 14:56:12;;;;;;;2.78;1.13;;;;;;;;;;5000396;28;20073;-86
2022/05/14 14:58:42;;;;;;;1.10;0.73;;;;;;;;;;5002051;28;20053;-87
2022/05/14 15:01:22;;;;;;;1.30;0.63;;;;;;;;;;5004008;28;20053;-86
2022/05/14 15:03:53;;;;;;;2.20;0.88;;;;;;;;;;5002144;28;20081;-88
2022/05/14 15:06:30;;;;;;;3.40;1.35;;;;;;;;;;5001797;28;20049;-86
2022/05/14 15:08:57;;;;;;;3.40;0.90;;;;;;;;;;5001587;28;20108;-89
2022/05/14 15:11:37;;;;;;;4.10;0.90;;;;;;;;;;5002541;28;20133;-86
2022/05/14 15:14:06;;;;;;;1.77;1.08;;;;;;;;;;5001419;28;20096;-87
2022/05/14 15:16:43;;;;;;;1.35;0.77;;;;;;;;;;5000249;28;20046;-87
2022/05/14 15:19:10;;;;;;;3.67;0.80;;;;;;;;;;5002900;28;20054;-87
2022/05/14 15:21:39;;;;;;;0.80;0.80;;;;;;;;;;5006369;28;20069;-85
2022/05/14 15:24:07;;;;;;;8.27;1.17;;;;;;;;;;5005407;28;20495;-88
2022/05/14 15:26:34;;;;;;;3.25;1.20;;;;;;;;;;5006427;28;20058;-88
2022/05/14 15:29:01;;;;;;;5.68;1.00;;;;;;;;;;5004303;28;20041;-86
2022/05/14 15:31:50;;;;;;;2.85;1.45;;;;;;;;;;5008751;28;20046;-86
2022/05/14 15:34:19;;;;;;;2.33;1.02;;;;;;;;;;5014376;28;20053;-87
2022/05/14 15:36:50;;;;;;;2.05;0.90;;;;;;;;;;5020299;28;20056;-85
2022/05/14 15:39:17;;;;;;;40.17;2.55;;;;;;;;;;5018873;28;20077;-88
2022/05/14 15:41:46;;;;;;;55.15;2.95;;;;;;;;;;5018570;28;20058;-86